createdAt,value
2022-12-28T00:02:27.190Z,13.83
2022-12-28T00:04:59.029Z,10.45
2022-12-28T00:07:30.744Z,11.97
2022-12-28T00:10:02.587Z,12.00
2022-12-28T00:12:34.334Z,11.80
2022-12-28T00:15:06.509Z,10.60
2022-12-28T00:17:38.205Z,17.47
2022-12-28T00:20:10.840Z,10.27
2022-12-28T00:22:42.664Z,14.63
2022-12-28T00:25:14.428Z,12.63
2022-12-28T00:27:46.152Z,10.13
2022-12-28T00:30:18.068Z,10.43
2022-12-28T00:32:50.364Z,7.03
2022-12-28T00:35:22.260Z,9.97
2022-12-28T00:37:53.956Z,10.27
2022-12-28T00:40:25.748Z,8.80
2022-12-28T00:42:57.456Z,9.40
2022-12-28T00:45:29.199Z,12.70
2022-12-28T00:48:00.994Z,7.70
2022-12-28T00:50:32.695Z,8.20
2022-12-28T00:53:04.461Z,8.00
2022-12-28T00:55:37.101Z,7.90
2022-12-28T00:58:09.947Z,8.83
2022-12-28T01:00:41.848Z,7.50
2022-12-28T01:03:13.726Z,8.20
2022-12-28T01:05:45.593Z,7.17
2022-12-28T01:08:17.445Z,11.17
2022-12-28T01:10:49.501Z,9.00
2022-12-28T01:13:21.220Z,8.33
2022-12-28T01:15:52.981Z,8.83
2022-12-28T01:18:24.928Z,9.10
2022-12-28T01:20:56.700Z,6.97
2022-12-28T01:23:28.465Z,11.93
2022-12-28T01:26:03.668Z,7.67
2022-12-28T01:28:35.810Z,9.10
2022-12-28T01:31:10.873Z,7.87
2022-12-28T01:33:42.975Z,7.23
2022-12-28T01:36:16.327Z,7.97
2022-12-28T01:38:48.856Z,7.50
2022-12-28T01:41:21.201Z,6.70
2022-12-28T01:43:52.907Z,7.53
2022-12-28T01:46:32.301Z,9.13
2022-12-28T01:49:12.831Z,7.73
2022-12-28T01:52:06.225Z,9.03
2022-12-28T01:54:58.728Z,7.90
2022-12-28T01:57:33.934Z,8.07
2022-12-28T02:00:12.848Z,9.40
2022-12-28T02:03:12.772Z,8.83
2022-12-28T02:05:49.026Z,8.00
2022-12-28T02:08:28.343Z,7.53
2022-12-28T02:11:01.247Z,7.47
2022-12-28T02:13:34.341Z,7.17
2022-12-28T02:16:06.512Z,7.27
2022-12-28T02:18:39.304Z,7.83
2022-12-28T02:21:22.401Z,7.10
2022-12-28T02:24:15.387Z,7.50
2022-12-28T02:27:11.829Z,7.40
2022-12-28T02:29:51.322Z,7.13
2022-12-28T02:32:41.990Z,6.70
2022-12-28T02:35:38.456Z,7.03
2022-12-28T02:38:20.264Z,6.27
2022-12-28T02:41:01.673Z,6.23
2022-12-28T02:43:34.686Z,8.57
2022-12-28T02:46:43.144Z,5.35
2022-12-28T02:49:44.736Z,5.27
2022-12-28T02:52:35.399Z,4.13
2022-12-28T02:55:47.196Z,3.90
2022-12-28T02:58:50.895Z,4.37
2022-12-28T03:01:42.221Z,4.73
2022-12-28T03:04:25.485Z,6.00
2022-12-28T03:07:51.703Z,3.83
2022-12-28T03:10:49.404Z,6.10
2022-12-28T03:13:43.827Z,4.57
2022-12-28T03:17:02.335Z,3.57
2022-12-28T03:19:59.832Z,4.70
2022-12-28T03:22:52.263Z,4.27
2022-12-28T03:25:46.356Z,3.60
2022-12-28T03:28:41.399Z,3.80
2022-12-28T03:31:21.090Z,3.73
2022-12-28T03:34:06.790Z,3.53
2022-12-28T03:36:52.541Z,4.33
2022-12-28T03:40:09.962Z,3.40
2022-12-28T03:43:07.107Z,3.70
2022-12-28T03:46:08.865Z,3.60
2022-12-28T03:48:41.734Z,3.90
2022-12-28T03:51:16.307Z,3.10
2022-12-28T03:53:48.275Z,3.80
2022-12-28T03:56:23.395Z,3.40
2022-12-28T03:58:56.387Z,2.97
2022-12-28T04:01:28.183Z,3.10
2022-12-28T04:04:00.038Z,3.37
2022-12-28T04:06:31.859Z,2.77
2022-12-28T04:09:04.869Z,2.67
2022-12-28T04:11:37.334Z,3.40
2022-12-28T04:14:11.145Z,5.00
2022-12-28T04:16:43.167Z,3.50
2022-12-28T04:19:14.881Z,2.67
2022-12-28T04:21:46.624Z,5.80
2022-12-28T04:24:18.313Z,3.77
2022-12-28T04:26:50.118Z,3.57
2022-12-28T04:29:21.868Z,3.13
2022-12-28T04:31:53.628Z,3.57
2022-12-28T04:34:25.338Z,6.35
2022-12-28T04:36:57.221Z,2.87
2022-12-28T04:39:29.027Z,6.07
2022-12-28T04:42:21.065Z,3.53
2022-12-28T04:44:53.030Z,3.40
2022-12-28T04:47:24.786Z,3.23
2022-12-28T04:49:56.587Z,3.07
2022-12-28T04:52:28.388Z,3.20
2022-12-28T04:55:00.213Z,3.17
2022-12-28T04:57:31.984Z,3.07
2022-12-28T05:00:04.271Z,3.10
2022-12-28T05:02:36.027Z,3.63
2022-12-28T05:05:08.236Z,7.60
2022-12-28T05:07:40.027Z,4.72
2022-12-28T05:10:11.880Z,4.10
2022-12-28T05:12:43.860Z,3.33
2022-12-28T05:15:15.695Z,2.97
2022-12-28T05:17:47.450Z,3.47
2022-12-28T05:20:20.582Z,3.67
2022-12-28T05:22:52.434Z,3.77
2022-12-28T05:25:24.173Z,3.53
2022-12-28T05:27:55.911Z,4.87
2022-12-28T05:30:27.607Z,3.20
2022-12-28T05:32:59.443Z,2.90
2022-12-28T05:35:31.160Z,3.90
2022-12-28T05:38:03.664Z,3.83
2022-12-28T05:40:35.375Z,3.10
2022-12-28T05:43:07.147Z,3.70
2022-12-28T05:45:38.832Z,3.67
2022-12-28T05:48:10.597Z,3.90
2022-12-28T05:50:42.263Z,3.37
2022-12-28T05:53:14.007Z,2.90
2022-12-28T05:55:45.743Z,2.97
2022-12-28T05:58:17.493Z,4.63
2022-12-28T06:00:49.285Z,3.17
2022-12-28T06:03:21.000Z,3.83
2022-12-28T06:05:52.766Z,3.10
2022-12-28T06:08:24.577Z,3.13
2022-12-28T06:11:00.703Z,3.10
2022-12-28T06:13:33.635Z,3.20
2022-12-28T06:16:11.171Z,2.80
2022-12-28T06:18:43.879Z,3.03
2022-12-28T06:21:21.619Z,3.87
2022-12-28T06:23:57.699Z,2.60
2022-12-28T06:26:33.230Z,3.57
2022-12-28T06:29:05.385Z,3.40
2022-12-28T06:31:39.572Z,3.20
2022-12-28T06:34:11.530Z,3.40
2022-12-28T06:36:46.280Z,12.47
2022-12-28T06:39:18.035Z,20.63
2022-12-28T06:41:49.832Z,5.20
2022-12-28T06:44:21.552Z,4.23
2022-12-28T06:46:53.313Z,4.80
2022-12-28T06:49:25.025Z,8.80
2022-12-28T06:51:56.844Z,4.03
2022-12-28T06:54:28.525Z,3.30
2022-12-28T06:57:00.310Z,3.60
2022-12-28T06:59:32.073Z,4.13
2022-12-28T07:02:03.974Z,6.00
2022-12-28T07:04:35.887Z,5.27
2022-12-28T07:07:09.100Z,4.17
2022-12-28T07:09:40.843Z,3.27
2022-12-28T07:12:12.581Z,3.30
2022-12-28T07:14:44.230Z,3.00
2022-12-28T07:17:16.034Z,6.60
2022-12-28T07:19:47.768Z,4.03
2022-12-28T07:22:19.559Z,3.70
2022-12-28T07:24:51.327Z,3.77
2022-12-28T07:27:23.132Z,2.87
2022-12-28T07:29:54.922Z,3.80
2022-12-28T07:32:26.736Z,3.63
2022-12-28T07:34:58.447Z,6.50
2022-12-28T07:37:30.227Z,4.47
2022-12-28T07:40:02.042Z,3.20
2022-12-28T07:42:33.815Z,3.10
2022-12-28T07:45:09.074Z,3.30
2022-12-28T07:47:40.818Z,3.07
2022-12-28T07:50:12.609Z,3.10
2022-12-28T07:52:44.343Z,3.93
2022-12-28T07:55:16.466Z,3.43
2022-12-28T07:57:48.159Z,3.47
2022-12-28T08:00:20.016Z,3.60
2022-12-28T08:02:56.157Z,3.90
2022-12-28T08:05:27.989Z,5.10
2022-12-28T08:08:03.492Z,5.50
2022-12-28T08:10:35.844Z,4.07
2022-12-28T08:13:07.832Z,3.40
2022-12-28T08:15:39.671Z,3.93
2022-12-28T08:18:11.624Z,4.73
2022-12-28T08:20:43.292Z,5.20
2022-12-28T08:23:15.239Z,4.07
2022-12-28T08:25:47.040Z,4.37
2022-12-28T08:28:18.844Z,4.20
2022-12-28T08:30:50.632Z,4.80
2022-12-28T08:33:22.350Z,5.00
2022-12-28T08:35:57.012Z,5.00
2022-12-28T08:38:28.776Z,3.90
2022-12-28T08:41:03.030Z,4.90
2022-12-28T08:43:35.176Z,4.17
2022-12-28T08:46:17.174Z,3.27
2022-12-28T08:48:50.304Z,4.83
2022-12-28T08:51:42.509Z,3.23
2022-12-28T08:54:14.720Z,5.63
2022-12-28T08:56:46.976Z,3.80
2022-12-28T08:59:19.777Z,3.50
2022-12-28T09:01:51.615Z,2.47
2022-12-28T09:04:23.552Z,2.43
2022-12-28T09:06:55.264Z,2.87
2022-12-28T09:09:27.063Z,2.87
2022-12-28T09:11:58.733Z,2.70
2022-12-28T09:14:30.505Z,2.67
2022-12-28T09:17:02.343Z,2.53
2022-12-28T09:19:34.285Z,2.40
2022-12-28T09:22:05.969Z,2.20
2022-12-28T09:24:37.860Z,3.00
2022-12-28T09:27:09.593Z,3.03
2022-12-28T09:29:41.279Z,3.33
2022-12-28T09:32:12.925Z,2.50
2022-12-28T09:34:44.683Z,2.37
2022-12-28T09:37:16.482Z,1.90
2022-12-28T09:39:48.527Z,3.20
2022-12-28T09:42:25.352Z,2.73
2022-12-28T09:45:04.901Z,2.10
2022-12-28T09:47:48.152Z,3.00
2022-12-28T09:50:28.470Z,8.00
2022-12-28T09:53:20.065Z,2.13
2022-12-28T09:55:59.976Z,2.00
2022-12-28T09:58:33.911Z,2.50
2022-12-28T10:01:12.672Z,2.22
2022-12-28T10:03:46.608Z,2.40
2022-12-28T10:06:24.332Z,3.27
2022-12-28T10:08:58.740Z,2.27
2022-12-28T10:11:35.682Z,2.03
2022-12-28T10:14:30.196Z,2.80
2022-12-28T10:17:02.784Z,2.50
2022-12-28T10:19:34.627Z,2.13
2022-12-28T10:22:11.373Z,2.67
2022-12-28T10:24:43.985Z,2.00
2022-12-28T10:27:24.736Z,4.70
2022-12-28T10:30:00.661Z,1.73
2022-12-28T10:33:01.775Z,2.60
2022-12-28T10:35:42.280Z,2.47
2022-12-28T10:38:23.336Z,2.00
2022-12-28T10:41:15.780Z,2.20
2022-12-28T10:44:21.393Z,2.73
2022-12-28T10:47:03.753Z,1.90
2022-12-28T10:49:38.134Z,1.70
2022-12-28T10:52:20.425Z,2.40
2022-12-28T10:55:07.602Z,2.20
2022-12-28T10:58:18.705Z,2.60
2022-12-28T11:00:35.723Z,2.40
2022-12-28T11:03:25.786Z,2.47
2022-12-28T11:09:50.376Z,2.10
2022-12-28T11:16:15.229Z,2.47
2022-12-28T11:18:47.430Z,1.70
2022-12-28T11:21:22.161Z,2.57
2022-12-28T11:23:54.315Z,2.50
2022-12-28T11:26:28.339Z,3.07
2022-12-28T11:29:01.223Z,2.33
2022-12-28T11:31:49.084Z,3.30
2022-12-28T11:34:25.800Z,3.53
2022-12-28T11:36:57.780Z,3.07
2022-12-28T11:39:31.859Z,2.40
2022-12-28T11:42:37.082Z,2.43
2022-12-28T11:44:55.541Z,2.00
2022-12-28T11:47:35.567Z,2.50
2022-12-28T11:50:36.653Z,1.70
2022-12-28T11:53:31.351Z,2.70
2022-12-28T11:56:04.883Z,2.23
2022-12-28T11:58:40.695Z,2.75
2022-12-28T12:01:34.576Z,2.10
2022-12-28T12:04:11.636Z,2.30
2022-12-28T12:06:43.362Z,2.37
2022-12-28T12:09:21.242Z,3.13
2022-12-28T12:11:59.056Z,2.10
2022-12-28T12:14:42.748Z,2.63
2022-12-28T12:17:41.197Z,2.07
2022-12-28T12:20:21.351Z,2.57
2022-12-28T12:22:59.227Z,2.73
2022-12-28T12:25:43.961Z,2.13
2022-12-28T12:28:31.861Z,3.17
2022-12-28T12:31:08.190Z,5.43
2022-12-28T12:33:45.353Z,3.93
2022-12-28T12:36:33.259Z,2.33
2022-12-28T12:39:51.252Z,3.38
2022-12-28T12:42:43.719Z,2.33
2022-12-28T12:45:15.371Z,2.20
2022-12-28T12:47:56.413Z,2.30
2022-12-28T12:50:50.782Z,4.70
2022-12-28T12:53:36.704Z,3.77
2022-12-28T12:56:34.085Z,2.80
2022-12-28T12:59:53.318Z,5.30
2022-12-28T13:02:47.649Z,4.07
2022-12-28T13:05:24.432Z,3.00
2022-12-28T13:07:58.570Z,2.63
2022-12-28T13:10:35.603Z,2.67
2022-12-28T13:13:07.407Z,3.10
2022-12-28T13:15:43.933Z,3.00
2022-12-28T13:21:18.894Z,2.43
2022-12-28T13:23:51.918Z,2.43
2022-12-28T13:26:29.248Z,2.50
2022-12-28T13:29:08.260Z,2.90
2022-12-28T13:31:42.037Z,2.90
2022-12-28T13:34:13.802Z,4.57
2022-12-28T13:36:49.402Z,8.00
2022-12-28T13:39:22.300Z,2.65
2022-12-28T13:41:59.892Z,4.93
2022-12-28T13:44:56.464Z,5.80
2022-12-28T13:47:35.367Z,2.70
2022-12-28T13:50:14.317Z,2.80
2022-12-28T13:52:53.796Z,2.93
2022-12-28T13:55:32.037Z,5.53
2022-12-28T13:58:09.106Z,3.30
2022-12-28T14:00:45.998Z,2.73
2022-12-28T14:03:19.216Z,2.77
2022-12-28T14:05:59.923Z,2.33
2022-12-28T14:08:36.472Z,2.70
2022-12-28T14:11:10.035Z,3.20
2022-12-28T14:13:41.909Z,4.60
2022-12-28T14:16:15.004Z,9.93
2022-12-28T14:18:49.559Z,3.90
2022-12-28T14:21:45.299Z,3.00
2022-12-28T14:24:17.506Z,2.87
2022-12-28T14:26:53.702Z,2.90
2022-12-28T14:29:34.099Z,4.00
2022-12-28T14:32:13.148Z,4.00
2022-12-28T14:34:46.174Z,4.33
2022-12-28T14:37:35.392Z,3.80
2022-12-28T14:40:17.843Z,3.57
2022-12-28T14:42:51.508Z,3.10
2022-12-28T14:45:34.124Z,2.83
2022-12-28T14:48:30.533Z,3.00
2022-12-28T14:51:17.540Z,3.80
2022-12-28T14:54:14.461Z,3.97
2022-12-28T14:56:54.399Z,3.00
2022-12-28T14:59:33.525Z,3.23
2022-12-28T15:02:05.829Z,4.23
2022-12-28T15:04:41.048Z,4.40
2022-12-28T15:07:12.884Z,4.40
2022-12-28T15:09:46.277Z,4.47
2022-12-28T15:12:21.772Z,4.83
2022-12-28T15:14:53.560Z,6.73
2022-12-28T15:17:29.909Z,5.93
2022-12-28T15:20:05.517Z,5.10
2022-12-28T15:22:38.356Z,6.50
2022-12-28T15:25:10.532Z,5.97
2022-12-28T15:27:42.209Z,4.27
2022-12-28T15:30:19.519Z,8.83
2022-12-28T15:32:53.474Z,10.43
2022-12-28T15:35:25.971Z,12.20
2022-12-28T15:37:57.809Z,5.80
2022-12-28T15:40:29.833Z,10.93
2022-12-28T15:43:01.552Z,6.93
2022-12-28T15:45:33.381Z,4.93
2022-12-28T15:48:06.421Z,5.43
2022-12-28T15:50:38.172Z,5.00
2022-12-28T15:53:09.903Z,4.87
2022-12-28T15:55:41.637Z,4.60
2022-12-28T15:58:13.343Z,4.35
2022-12-28T16:00:47.641Z,5.53
2022-12-28T16:03:19.623Z,6.43
2022-12-28T16:05:51.378Z,5.30
2022-12-28T16:08:23.136Z,5.57
2022-12-28T16:10:55.055Z,5.13
2022-12-28T16:13:26.757Z,5.60
2022-12-28T16:16:04.974Z,5.53
2022-12-28T16:18:36.930Z,5.23
2022-12-28T16:21:10.188Z,3.83
2022-12-28T16:23:43.985Z,5.20
2022-12-28T16:26:16.000Z,6.53
2022-12-28T16:28:48.112Z,6.37
2022-12-28T16:31:30.805Z,5.03
2022-12-28T16:34:14.611Z,4.30
2022-12-28T16:36:46.740Z,4.13
2022-12-28T16:39:18.762Z,4.37
2022-12-28T16:41:50.528Z,4.67
2022-12-28T16:44:24.798Z,5.03
2022-12-28T16:47:00.921Z,5.13
2022-12-28T16:49:32.857Z,5.27
2022-12-28T16:52:04.729Z,5.20
2022-12-28T16:54:36.442Z,4.97
2022-12-28T16:57:08.164Z,4.13
2022-12-28T16:59:39.843Z,4.20
2022-12-28T17:02:13.029Z,4.73
2022-12-28T17:04:44.912Z,4.50
2022-12-28T17:07:16.592Z,4.40
2022-12-28T17:09:50.461Z,4.23
2022-12-28T17:12:22.406Z,4.87
2022-12-28T17:14:54.128Z,4.00
2022-12-28T17:17:25.865Z,4.60
2022-12-28T17:19:57.715Z,4.53
2022-12-28T17:22:30.965Z,4.40
2022-12-28T17:25:02.848Z,4.53
2022-12-28T17:27:34.879Z,7.00
2022-12-28T17:30:07.042Z,5.07
2022-12-28T17:32:38.830Z,4.37
2022-12-28T17:35:10.590Z,6.27
2022-12-28T17:37:42.661Z,4.90
2022-12-28T17:40:14.489Z,4.27
2022-12-28T17:42:46.286Z,4.93
2022-12-28T17:45:18.031Z,4.23
2022-12-28T17:47:49.739Z,5.93
2022-12-28T17:50:23.338Z,13.83
2022-12-28T17:52:55.057Z,14.73
2022-12-28T17:55:26.939Z,11.07
2022-12-28T17:57:58.718Z,4.93
2022-12-28T18:00:30.469Z,4.90
2022-12-28T18:03:02.330Z,7.43
2022-12-28T18:05:34.682Z,6.73
2022-12-28T18:08:06.429Z,5.20
2022-12-28T18:10:38.134Z,6.40
2022-12-28T18:13:09.857Z,7.30
2022-12-28T18:15:44.187Z,7.47
2022-12-28T18:18:17.193Z,6.13
2022-12-28T18:21:00.178Z,4.57
2022-12-28T18:23:32.466Z,5.13
2022-12-28T18:26:06.150Z,5.13
2022-12-28T18:28:37.874Z,5.63
2022-12-28T18:31:10.144Z,5.40
2022-12-28T18:33:42.042Z,5.27
2022-12-28T18:36:17.636Z,4.77
2022-12-28T18:38:49.976Z,5.20
2022-12-28T18:41:22.365Z,5.00
2022-12-28T18:43:56.908Z,4.73
2022-12-28T18:46:28.669Z,6.03
2022-12-28T18:49:00.929Z,4.37
2022-12-28T18:51:32.625Z,6.37
2022-12-28T18:54:04.815Z,4.70
2022-12-28T18:56:36.613Z,5.73
2022-12-28T18:59:08.402Z,6.03
2022-12-28T19:02:05.854Z,4.20
2022-12-28T19:04:32.190Z,4.40
2022-12-28T19:07:04.067Z,4.87
2022-12-28T19:09:35.818Z,4.00
2022-12-28T19:12:07.687Z,5.33
2022-12-28T19:14:39.407Z,4.33
2022-12-28T19:17:11.854Z,4.80
2022-12-28T19:19:43.607Z,4.50
2022-12-28T19:22:15.417Z,4.50
2022-12-28T19:24:47.102Z,4.57
2022-12-28T19:27:18.861Z,5.37
2022-12-28T19:29:50.708Z,4.60
2022-12-28T19:32:22.453Z,5.07
2022-12-28T19:34:54.272Z,5.27
2022-12-28T19:37:26.039Z,4.60
2022-12-28T19:39:58.149Z,5.37
2022-12-28T19:42:30.002Z,4.90
2022-12-28T19:45:07.935Z,4.40
2022-12-28T19:47:41.553Z,4.43
2022-12-28T19:50:13.538Z,5.00
2022-12-28T19:52:45.336Z,4.83
2022-12-28T19:55:17.171Z,4.57
2022-12-28T19:57:48.942Z,4.68
2022-12-28T20:00:21.077Z,4.70
2022-12-28T20:02:53.314Z,5.60
2022-12-28T20:05:25.942Z,6.67
2022-12-28T20:07:57.843Z,5.03
2022-12-28T20:10:29.994Z,6.30
2022-12-28T20:13:01.819Z,5.43
2022-12-28T20:15:33.739Z,10.83
2022-12-28T20:18:05.608Z,8.83
2022-12-28T20:21:16.811Z,9.00
2022-12-28T20:23:29.113Z,7.83
2022-12-28T20:26:00.894Z,5.40
2022-12-28T20:28:33.187Z,5.77
2022-12-28T20:31:07.187Z,8.13
2022-12-28T20:33:39.532Z,4.37
2022-12-28T20:36:14.176Z,6.90
2022-12-28T20:38:46.690Z,5.87
2022-12-28T20:41:45.632Z,4.97
2022-12-28T20:44:29.049Z,4.83
2022-12-28T20:47:04.455Z,6.13
2022-12-28T20:49:36.318Z,5.17
2022-12-28T20:52:08.055Z,5.93
2022-12-28T20:54:39.816Z,5.47
2022-12-28T20:57:11.524Z,5.17
2022-12-28T20:59:43.353Z,6.43
2022-12-28T21:02:15.106Z,5.23
2022-12-28T21:04:46.971Z,4.80
2022-12-28T21:07:19.668Z,4.70
2022-12-28T21:09:51.513Z,5.60
2022-12-28T21:12:23.290Z,5.33
2022-12-28T21:14:55.124Z,4.13
2022-12-28T21:17:26.857Z,6.10
2022-12-28T21:19:58.675Z,9.67
2022-12-28T21:22:30.518Z,6.53
2022-12-28T21:25:02.277Z,5.73
2022-12-28T21:27:39.590Z,5.00
2022-12-28T21:30:14.144Z,5.30
2022-12-28T21:32:48.964Z,4.70
2022-12-28T21:35:20.673Z,8.40
2022-12-28T21:37:52.553Z,5.50
2022-12-28T21:40:24.421Z,4.50
2022-12-28T21:42:56.152Z,6.27
2022-12-28T21:45:27.897Z,4.93
2022-12-28T21:47:59.741Z,4.85
2022-12-28T21:50:31.401Z,5.47
2022-12-28T21:53:03.212Z,7.23
2022-12-28T21:55:44.225Z,5.70
2022-12-28T21:58:15.996Z,5.30
2022-12-28T22:01:06.668Z,5.83
2022-12-28T22:03:56.875Z,5.70
2022-12-28T22:06:28.620Z,6.70
2022-12-28T22:09:18.978Z,5.63
2022-12-28T22:12:09.632Z,4.07
2022-12-28T22:14:42.449Z,4.60
2022-12-28T22:17:14.779Z,4.33
2022-12-28T22:19:46.636Z,6.13
2022-12-28T22:22:18.377Z,4.17
2022-12-28T22:24:50.112Z,6.47
2022-12-28T22:27:21.931Z,7.67
2022-12-28T22:29:54.085Z,5.23
2022-12-28T22:32:27.428Z,7.37
2022-12-28T22:34:59.255Z,4.80
2022-12-28T22:37:33.398Z,4.40
2022-12-28T22:40:06.403Z,4.40
2022-12-28T22:42:42.883Z,4.57
2022-12-28T22:45:20.399Z,5.20
2022-12-28T22:47:55.242Z,4.70
2022-12-28T22:50:28.215Z,4.03
2022-12-28T22:53:00.046Z,3.90
2022-12-28T22:55:32.161Z,14.63
2022-12-28T22:58:03.856Z,4.07
2022-12-28T23:00:35.652Z,4.13
2022-12-28T23:03:07.374Z,6.57
2022-12-28T23:05:39.313Z,6.23
2022-12-28T23:08:10.983Z,8.83
2022-12-28T23:10:53.345Z,4.33
2022-12-28T23:13:26.670Z,4.03
2022-12-28T23:16:00.984Z,4.10
2022-12-28T23:18:53.387Z,3.77
2022-12-28T23:21:43.847Z,4.20
2022-12-28T23:24:34.458Z,4.60
2022-12-28T23:27:21.856Z,4.67
2022-12-28T23:29:53.573Z,3.57
2022-12-28T23:32:25.412Z,5.07
2022-12-28T23:34:57.245Z,4.37
2022-12-28T23:37:28.974Z,5.47
2022-12-28T23:40:00.727Z,3.60
2022-12-28T23:42:32.519Z,4.50
2022-12-28T23:45:05.673Z,4.20
2022-12-28T23:47:37.731Z,3.37
2022-12-28T23:50:10.379Z,4.70
2022-12-28T23:52:42.551Z,4.00
2022-12-28T23:55:14.507Z,3.87
2022-12-28T23:57:46.261Z,4.50
